Nouméa, Nouvelle-Calédonie

04:09 NCT le 02 octobre 2016 (GMT +1100)
Allée de la Boussole | | Change Station

Alt. 183 ft 22.28 °S, 166.45 °E | Updated 3 minutes ago

Clear
Ciel dégagé
66.7 ° F
Paraît 66.7 ° F
N
0.6
Vent Variable Vent de SO
Gusts 1.2 mph

Aujourd'hui
Haut(e) -- | Bas -- ° F
--% Risque de précip.
Hier
Haut(e) -- | Bas -- ° F
Precip. -- pouce
Pression 29.98 pouce
Visibilité 6.2 Miles terrestres
Nuages
Point de rosée 62 ° F
Humidité 86%
Précipitations 0.00 pouce
Profondeur de la couche neigeuse Non disponible.
5:34 AM 5:53 PM
Nouvelle lune, 0% visible
METAR NWWW 011700Z AUTO 00000KT 9999 NCD 19/16 Q1015 NOSIG
Pression 29.98 pouce
Visibilité 6.2 Miles terrestres
Nuages
Point de rosée 62 ° F
Humidité 86%
Précipitations 0.00 pouce
Profondeur de la couche neigeuse Non disponible.
5:34 AM 5:53 PM
Nouvelle lune, 0% visible
METAR NWWW 011700Z AUTO 00000KT 9999 NCD 19/16 Q1015 NOSIG

10-Day Weather Forecast

No radar image for this location.
×

Almanac

Astronomie

Oct. 02, 2016 Lever Coucher
Temps réel
Crépuscule civil
Crépuscule nautique
Crépuscule astronomique
Lune
Durée de lumière visible
Longueur du jour
Tomorrow will be .
, % of the Moon is Illuminated

Extrêmes aujourd'hui

Country Highs Country Lows

Community

WunderPhotos

Upload Photos

1,942,962 Photos téléchargées !

WunderBlog® & News

Nearby

Qualité de l'air

  Qualité de l'air Indice de la qualité de l'air Polluant
Not available.

Épaisseur de neige

Station Depth Altitude

Activité sismique

Ville Distance Mag. Time & Date
Minimum magnitude displayed is 2.5.

Températures des eaux côtières

Lieu Température

Stations

Stations météo à proximité

Emplacement de la station Température Refroidissement éolien Point de rosée Humidité Vent Precip. Alt. Mise à jour Type